Terminal Aerodrome Forecast
Issued by NWS Portland, OR

Home | Current Version | Previous Version | Text Only | Print | Product List | Glossary On
Versions: 1 2 3 4 5 6 7 8 9 10 11 12 13 14 15 16 17 18 19 20 21 22 23 24 25 26 27 28 29 30 31 32 33 34 35
000
FTUS46 KPQR 192329
TAFEUG
TAF
KEUG 192329Z 2000/2024 17008KT P6SM -SHRA FEW030 SCT060
     FM200400 17008KT P6SM VCSH SCT030 OVC060
     FM200900 17010KT 6SM -RA BR SCT015 OVC030
     FM201200 17011KT 6SM -RA BR FEW008 SCT015 OVC030
     FM201500 18014G22KT 6SM -RA BR SCT008 BKN015 OVC030=

USA.gov is the U.S. government's official web portal to all federal, state and local government web resources and services.